createdAt,value
2019-01-23T00:00:38.981Z,32.70
2019-01-23T00:01:38.989Z,33.00
2019-01-23T00:02:39.000Z,32.00
2019-01-23T00:03:39.007Z,33.30
2019-01-23T00:04:39.014Z,33.40
2019-01-23T00:05:39.029Z,32.80
2019-01-23T00:06:39.043Z,33.50
2019-01-23T00:07:39.062Z,33.80
2019-01-23T00:08:39.050Z,34.00
2019-01-23T00:09:39.059Z,31.90
2019-01-23T00:10:39.071Z,33.80
2019-01-23T00:11:39.085Z,32.60
2019-01-23T00:12:39.092Z,33.40
2019-01-23T00:13:39.097Z,32.90
2019-01-23T00:14:39.125Z,33.80
2019-01-23T00:15:39.113Z,32.60
2019-01-23T00:16:39.123Z,33.20
2019-01-23T00:17:39.137Z,33.70
2019-01-23T00:18:39.144Z,32.90
2019-01-23T00:19:39.154Z,33.00
2019-01-23T00:20:39.167Z,32.40
2019-01-23T00:21:39.175Z,32.00
2019-01-23T00:22:39.183Z,33.70
2019-01-23T00:23:39.187Z,32.70
2019-01-23T00:24:39.197Z,33.20
2019-01-23T00:25:39.205Z,33.40
2019-01-23T00:26:39.222Z,32.80
2019-01-23T00:27:39.224Z,33.60
2019-01-23T00:28:42.431Z,34.00
2019-01-23T00:29:39.247Z,33.20
2019-01-23T00:30:39.252Z,33.80
2019-01-23T00:31:39.261Z,33.80
2019-01-23T00:32:39.271Z,32.70
2019-01-23T00:33:39.277Z,32.10
2019-01-23T00:34:39.284Z,33.40
2019-01-23T00:35:39.296Z,32.90
2019-01-23T00:36:39.310Z,33.10
2019-01-23T00:37:39.315Z,33.90
2019-01-23T00:38:39.333Z,32.10
2019-01-23T00:39:39.338Z,32.90
2019-01-23T00:40:39.348Z,33.10
2019-01-23T00:41:39.354Z,31.50
2019-01-23T00:42:39.361Z,33.10
2019-01-23T00:43:39.380Z,33.10
2019-01-23T00:44:39.380Z,34.00
2019-01-23T00:45:39.386Z,33.10
2019-01-23T00:46:39.397Z,34.30
2019-01-23T00:47:39.412Z,32.30
2019-01-23T00:48:39.417Z,33.00
2019-01-23T00:49:39.421Z,32.70
2019-01-23T00:50:39.431Z,33.90
2019-01-23T00:51:39.444Z,33.40
2019-01-23T00:52:39.453Z,34.40
2019-01-23T00:53:39.462Z,33.00
2019-01-23T00:54:39.470Z,34.40
2019-01-23T00:55:39.476Z,32.80
2019-01-23T00:56:39.490Z,33.30
2019-01-23T00:57:39.495Z,33.50
2019-01-23T00:58:39.508Z,34.10
2019-01-23T00:59:39.516Z,34.70
2019-01-23T01:00:39.523Z,33.40
2019-01-23T01:01:39.534Z,33.40
2019-01-23T01:02:39.552Z,35.40
2019-01-23T01:03:39.548Z,34.20
2019-01-23T01:04:39.559Z,32.90
2019-01-23T01:05:39.568Z,33.70
2019-01-23T01:06:39.575Z,34.30
2019-01-23T01:07:39.583Z,34.00
2019-01-23T01:08:39.593Z,33.40
2019-01-23T01:09:39.604Z,33.40
2019-01-23T01:10:39.615Z,34.90
2019-01-23T01:11:39.623Z,33.30
2019-01-23T01:12:39.638Z,33.30
2019-01-23T01:13:39.638Z,33.10
2019-01-23T01:14:39.647Z,34.40
2019-01-23T01:15:39.659Z,33.30
2019-01-23T01:16:39.664Z,33.30
2019-01-23T01:17:39.675Z,34.50
2019-01-23T01:18:39.682Z,32.30
2019-01-23T01:19:39.693Z,32.40
2019-01-23T01:20:39.708Z,32.90
2019-01-23T01:21:39.722Z,32.90
2019-01-23T01:22:39.724Z,32.70
2019-01-23T01:23:39.733Z,32.90
2019-01-23T01:24:39.741Z,32.00
2019-01-23T01:25:39.747Z,32.10
2019-01-23T01:26:39.756Z,33.00
2019-01-23T01:27:39.763Z,32.50
2019-01-23T01:28:39.773Z,31.90
2019-01-23T01:29:39.781Z,33.10
2019-01-23T01:30:39.789Z,33.60
2019-01-23T01:31:39.800Z,32.90
2019-01-23T01:32:39.818Z,33.10
2019-01-23T01:33:39.820Z,33.30
2019-01-23T01:34:39.824Z,33.20
2019-01-23T01:35:39.840Z,32.70
2019-01-23T01:36:39.844Z,32.40
2019-01-23T01:37:39.856Z,33.10
2019-01-23T01:38:39.870Z,32.50
2019-01-23T01:39:39.872Z,33.20
2019-01-23T01:40:39.880Z,33.10
2019-01-23T01:41:39.891Z,33.70
2019-01-23T01:42:39.898Z,33.20
2019-01-23T01:43:39.911Z,33.10
2019-01-23T01:44:39.942Z,32.60
2019-01-23T01:45:39.923Z,34.30
2019-01-23T01:46:39.936Z,33.50
2019-01-23T01:47:39.940Z,33.40
2019-01-23T01:48:39.955Z,33.10
2019-01-23T01:49:39.961Z,32.60
2019-01-23T01:50:39.968Z,33.30
2019-01-23T01:51:39.975Z,34.00
2019-01-23T01:52:39.987Z,32.80
2019-01-23T01:53:39.993Z,33.20
2019-01-23T01:54:40.005Z,33.10
2019-01-23T01:55:40.015Z,34.00
2019-01-23T01:56:40.021Z,34.40
2019-01-23T01:57:40.033Z,33.70
2019-01-23T01:58:40.058Z,34.00
2019-01-23T01:59:40.049Z,34.50
2019-01-23T02:00:40.057Z,34.50
2019-01-23T02:01:40.062Z,34.50
2019-01-23T02:02:40.069Z,34.60
2019-01-23T02:03:40.080Z,34.70
2019-01-23T02:04:40.088Z,34.00
2019-01-23T02:05:40.107Z,34.70
2019-01-23T02:06:40.113Z,34.70
2019-01-23T02:07:40.122Z,34.80
2019-01-23T02:08:40.131Z,34.70
2019-01-23T02:09:40.135Z,34.70
2019-01-23T02:10:40.140Z,34.60
2019-01-23T02:11:40.150Z,35.10
2019-01-23T02:12:40.156Z,36.30
2019-01-23T02:13:40.165Z,35.10
2019-01-23T02:14:40.174Z,34.20
2019-01-23T02:15:40.181Z,35.70
2019-01-23T02:16:40.194Z,34.90
2019-01-23T02:17:40.201Z,35.20
2019-01-23T02:18:40.209Z,34.90
2019-01-23T02:19:40.229Z,35.80
2019-01-23T02:20:40.227Z,35.80
2019-01-23T02:21:40.235Z,35.60
2019-01-23T02:22:40.243Z,36.60
2019-01-23T02:23:40.253Z,35.40
2019-01-23T02:24:40.270Z,35.70
2019-01-23T02:25:40.276Z,34.50
2019-01-23T02:26:40.286Z,35.00
2019-01-23T02:27:40.293Z,33.70
2019-01-23T02:28:40.298Z,35.50
2019-01-23T02:29:40.305Z,34.70
2019-01-23T02:30:40.312Z,34.80
2019-01-23T02:31:40.321Z,34.50
2019-01-23T02:32:40.328Z,35.30
2019-01-23T02:33:40.335Z,34.10
2019-01-23T02:34:40.343Z,34.70
2019-01-23T02:35:40.357Z,34.70
2019-01-23T02:36:40.363Z,35.00
2019-01-23T02:37:40.373Z,35.70
2019-01-23T02:38:40.391Z,34.10
2019-01-23T02:39:40.396Z,34.70
2019-01-23T02:40:40.406Z,35.50
2019-01-23T02:41:40.420Z,34.40
2019-01-23T02:42:40.427Z,36.00
2019-01-23T02:43:40.428Z,34.60
2019-01-23T02:44:40.442Z,35.00
2019-01-23T02:45:40.441Z,34.40
2019-01-23T02:46:40.450Z,35.00
2019-01-23T02:47:40.458Z,35.20
2019-01-23T02:48:40.469Z,35.20
2019-01-23T02:49:40.476Z,35.70
2019-01-23T02:50:40.483Z,35.10
2019-01-23T02:51:40.496Z,34.80
2019-01-23T02:52:40.503Z,34.90
2019-01-23T02:53:40.522Z,34.50
2019-01-23T02:54:40.516Z,34.20
2019-01-23T02:55:40.533Z,33.90
2019-01-23T02:56:40.538Z,35.20
2019-01-23T02:57:40.546Z,34.70
2019-01-23T02:58:40.552Z,35.40
2019-01-23T02:59:40.568Z,34.00
2019-01-23T03:00:40.574Z,34.90
2019-01-23T03:01:40.590Z,35.50
2019-01-23T03:02:40.593Z,34.90
2019-01-23T03:03:40.603Z,33.50
2019-01-23T03:04:40.608Z,34.40
2019-01-23T03:05:40.617Z,34.40
2019-01-23T03:06:40.621Z,33.70
2019-01-23T03:07:40.632Z,33.60
2019-01-23T03:08:40.643Z,34.50
2019-01-23T03:38:15.994Z,18.90
2019-01-23T03:39:15.971Z,27.50
2019-01-23T03:41:07.875Z,33.40
2019-01-23T03:42:07.875Z,33.80
2019-01-23T03:43:59.776Z,35.70
2019-01-23T03:44:59.752Z,35.20
2019-01-23T03:46:51.678Z,35.20
2019-01-23T03:47:51.649Z,34.60
2019-01-23T03:49:43.541Z,33.10
2019-01-23T03:50:43.537Z,34.30
2019-01-23T03:52:35.455Z,33.80
2019-01-23T03:53:35.439Z,34.80
2019-01-23T03:55:27.341Z,33.00
2019-01-23T03:56:27.345Z,34.30
2019-01-23T03:58:19.255Z,32.90
2019-01-23T03:59:19.231Z,34.60
2019-01-23T04:01:11.146Z,33.40
2019-01-23T04:02:11.148Z,34.20
2019-01-23T04:04:03.052Z,34.50
2019-01-23T04:05:03.036Z,33.70
2019-01-23T04:06:55.439Z,34.10
2019-01-23T04:07:55.422Z,33.30
2019-01-23T04:09:47.317Z,32.80
2019-01-23T04:10:47.318Z,34.10
2019-01-23T04:12:39.240Z,35.00
2019-01-23T04:13:39.215Z,32.80
2019-01-23T04:15:31.108Z,32.60
2019-01-23T04:16:31.109Z,35.60
2019-01-23T04:18:23.035Z,33.90
2019-01-23T04:19:23.020Z,33.70
2019-01-23T04:21:14.931Z,33.10
2019-01-23T04:22:14.921Z,33.90
2019-01-23T04:24:06.836Z,33.40
2019-01-23T04:25:06.819Z,34.60
2019-01-23T04:26:58.748Z,33.90
2019-01-23T04:27:58.734Z,33.90
2019-01-23T04:29:50.606Z,33.80
2019-01-23T04:30:50.612Z,34.70
2019-01-23T04:32:42.522Z,33.80
2019-01-23T04:33:42.513Z,34.50
2019-01-23T04:35:34.400Z,34.10
2019-01-23T04:36:34.399Z,32.60
2019-01-23T04:38:26.346Z,33.70
2019-01-23T04:39:26.329Z,34.50
2019-01-23T04:41:18.236Z,34.10
2019-01-23T04:42:18.234Z,34.30
2019-01-23T04:44:10.642Z,34.20
2019-01-23T04:45:10.627Z,33.30
2019-01-23T04:47:02.530Z,33.90
2019-01-23T04:48:02.535Z,33.40
2019-01-23T04:49:54.452Z,34.30
2019-01-23T04:50:54.433Z,32.80
2019-01-23T04:52:46.347Z,33.70
2019-01-23T04:53:46.336Z,34.60
2019-01-23T04:55:38.233Z,33.70
2019-01-23T04:56:38.255Z,33.90
2019-01-23T04:58:30.149Z,33.20
2019-01-23T04:59:30.131Z,34.60
2019-01-23T05:01:22.025Z,34.50
2019-01-23T05:02:22.024Z,33.80
2019-01-23T05:04:15.444Z,33.20
2019-01-23T05:05:15.411Z,33.30
2019-01-23T05:07:07.311Z,34.00
2019-01-23T05:08:07.311Z,34.50
2019-01-23T05:09:59.230Z,33.80
2019-01-23T05:10:59.211Z,33.20
2019-01-23T05:12:51.136Z,33.70
2019-01-23T05:13:51.111Z,33.30
2019-01-23T05:15:43.001Z,32.40
2019-01-23T05:16:43.006Z,33.30
2019-01-23T05:18:34.919Z,32.90
2019-01-23T05:19:34.899Z,32.80
2019-01-23T05:21:26.803Z,32.10
2019-01-23T05:22:26.811Z,32.00
2019-01-23T05:24:18.745Z,32.60
2019-01-23T05:25:18.723Z,32.50
2019-01-23T05:27:10.616Z,33.40
2019-01-23T05:28:10.617Z,32.20
2019-01-23T05:30:02.533Z,31.80
2019-01-23T05:31:02.520Z,31.90
2019-01-23T05:32:54.428Z,32.00
2019-01-23T05:33:54.407Z,32.00
2019-01-23T05:35:46.307Z,32.20
2019-01-23T05:36:46.336Z,30.90
2019-01-23T05:38:38.224Z,30.90
2019-01-23T05:39:38.202Z,32.00
2019-01-23T05:41:30.100Z,32.40
2019-01-23T05:42:30.102Z,32.00
2019-01-23T05:44:22.016Z,31.30
2019-01-23T05:45:21.997Z,31.20
2019-01-23T05:47:13.897Z,30.20
2019-01-23T05:48:13.897Z,30.70
2019-01-23T05:50:06.306Z,31.40
2019-01-23T05:51:06.290Z,31.30
2019-01-23T05:52:59.705Z,30.10
2019-01-23T05:53:59.689Z,31.80
2019-01-23T05:55:51.586Z,31.20
2019-01-23T05:56:51.590Z,32.30
2019-01-23T05:58:43.507Z,30.60
2019-01-23T05:59:43.487Z,30.70
2019-01-23T06:01:35.381Z,30.40
2019-01-23T06:02:35.380Z,30.60
2019-01-23T06:04:27.305Z,30.20
2019-01-23T06:05:27.282Z,30.70
2019-01-23T06:07:19.175Z,30.60
2019-01-23T06:08:19.183Z,30.40
2019-01-23T06:10:11.098Z,30.00
2019-01-23T06:11:11.080Z,30.20
2019-01-23T06:13:03.492Z,30.90
2019-01-23T06:14:03.476Z,30.40
2019-01-23T06:15:55.373Z,30.40
2019-01-23T06:16:55.370Z,29.50
2019-01-23T06:18:47.320Z,30.60
2019-01-23T06:19:47.278Z,29.30
2019-01-23T06:21:39.177Z,30.40
2019-01-23T06:22:39.177Z,30.40
2019-01-23T06:24:31.098Z,29.90
2019-01-23T06:25:31.097Z,29.70
2019-01-23T06:27:22.983Z,30.40
2019-01-23T06:28:22.987Z,30.70
2019-01-23T06:30:15.398Z,29.40
2019-01-23T06:31:15.385Z,30.20
2019-01-23T06:33:07.308Z,30.00
2019-01-23T06:34:07.285Z,31.30
2019-01-23T06:35:59.192Z,29.90
2019-01-23T06:36:59.193Z,30.00
2019-01-23T06:38:51.114Z,30.40
2019-01-23T06:39:51.096Z,30.90
2019-01-23T06:41:56.188Z,28.80
2019-01-23T06:42:56.192Z,30.50
2019-01-23T06:44:48.110Z,30.70
2019-01-23T06:45:48.090Z,30.90
2019-01-23T06:47:40.006Z,30.60
2019-01-23T06:48:39.990Z,29.70
2019-01-23T06:50:31.919Z,30.80
2019-01-23T06:51:31.896Z,29.50
2019-01-23T06:53:23.819Z,28.90
2019-01-23T06:54:23.806Z,30.30
2019-01-23T06:56:15.704Z,29.60
2019-01-23T06:57:15.710Z,29.80
2019-01-23T06:59:08.154Z,29.70
2019-01-23T07:00:08.099Z,29.50
2019-01-23T07:01:59.990Z,28.60
2019-01-23T07:03:00.016Z,29.70
2019-01-23T07:04:51.915Z,30.20
2019-01-23T07:05:51.898Z,29.20
2019-01-23T07:07:43.863Z,29.60
2019-01-23T07:08:43.794Z,28.90
2019-01-23T07:10:35.707Z,30.30
2019-01-23T07:11:35.702Z,29.80
2019-01-23T07:13:28.819Z,30.40
2019-01-23T07:14:28.089Z,29.00
2019-01-23T07:16:19.996Z,29.70
2019-01-23T07:17:19.982Z,31.00
2019-01-23T07:19:11.931Z,30.40
2019-01-23T07:20:11.924Z,30.30
2019-01-23T07:22:03.842Z,30.10
2019-01-23T07:23:03.845Z,31.50
2019-01-23T07:24:55.762Z,30.40
2019-01-23T07:25:55.745Z,30.00
2019-01-23T07:27:47.668Z,30.00
2019-01-23T07:28:49.232Z,30.60
2019-01-23T07:30:39.599Z,30.80
2019-01-23T07:31:39.577Z,30.30
2019-01-23T07:33:31.501Z,30.40
2019-01-23T07:34:31.510Z,30.90
2019-01-23T07:36:23.550Z,30.90
2019-01-23T07:37:23.404Z,31.10
2019-01-23T07:39:15.316Z,30.90
2019-01-23T07:40:15.299Z,31.30
2019-01-23T07:42:07.203Z,30.70
2019-01-23T07:43:07.199Z,30.50
2019-01-23T07:44:59.143Z,30.80
2019-01-23T07:45:59.130Z,32.00
2019-01-23T07:47:51.027Z,30.70
2019-01-23T07:48:51.022Z,31.50
2019-01-23T07:50:42.939Z,30.50
2019-01-23T07:51:42.924Z,31.20
2019-01-23T07:53:35.321Z,31.00
2019-01-23T07:54:35.312Z,29.90
2019-01-23T07:56:27.226Z,31.60
2019-01-23T07:57:27.207Z,30.30
2019-01-23T07:59:19.136Z,29.90
2019-01-23T08:00:19.137Z,30.80
2019-01-23T08:02:11.537Z,32.20
2019-01-23T08:03:11.520Z,30.30
2019-01-23T08:05:03.436Z,31.30
2019-01-23T08:06:03.413Z,30.10
2019-01-23T08:07:55.329Z,31.60
2019-01-23T08:08:55.326Z,30.10
2019-01-23T08:10:47.238Z,30.80
2019-01-23T08:11:47.229Z,32.00
2019-01-23T08:13:39.138Z,29.70
2019-01-23T08:14:39.141Z,31.10
2019-01-23T08:16:31.072Z,31.10
2019-01-23T08:17:32.968Z,30.60
2019-01-23T08:19:23.020Z,30.80
2019-01-23T08:20:22.969Z,31.60
2019-01-23T08:22:14.877Z,32.80
2019-01-23T08:23:14.872Z,31.70
2019-01-23T08:25:07.540Z,31.50
2019-01-23T08:26:07.288Z,31.30
2019-01-23T08:27:59.188Z,31.50
2019-01-23T08:28:59.224Z,32.40
2019-01-23T08:30:51.215Z,31.70
2019-01-23T08:31:51.155Z,32.30
2019-01-23T08:33:43.533Z,32.20
2019-01-23T08:34:43.093Z,31.70
2019-01-23T08:36:34.924Z,32.30
2019-01-23T08:37:34.903Z,30.60
2019-01-23T08:39:26.826Z,32.40
2019-01-23T08:40:26.804Z,32.30
2019-01-23T08:42:19.197Z,32.70
2019-01-23T08:43:19.198Z,31.50
2019-01-23T08:45:11.114Z,31.90
2019-01-23T08:46:11.101Z,32.70
2019-01-23T08:48:02.993Z,32.70
2019-01-23T08:49:02.998Z,32.30
2019-01-23T08:50:54.955Z,32.10
2019-01-23T08:51:54.894Z,31.70
2019-01-23T08:53:46.791Z,31.50
2019-01-23T08:54:46.791Z,32.70
2019-01-23T08:56:38.713Z,31.80
2019-01-23T08:57:38.697Z,31.80
2019-01-23T08:59:30.621Z,32.10
2019-01-23T09:00:30.606Z,32.20
2019-01-23T09:02:22.516Z,32.70
2019-01-23T09:03:22.504Z,32.20
2019-01-23T09:05:14.420Z,32.00
2019-01-23T09:06:14.407Z,31.50
2019-01-23T09:08:06.321Z,32.30
2019-01-23T09:09:06.301Z,32.60
2019-01-23T09:10:58.226Z,32.50
2019-01-23T09:11:58.212Z,32.90
2019-01-23T09:13:50.124Z,33.40
2019-01-23T09:14:50.111Z,32.20
2019-01-23T09:16:42.042Z,34.10
2019-01-23T09:17:42.028Z,32.60
2019-01-23T09:19:33.924Z,31.80
2019-01-23T09:20:33.926Z,32.40
2019-01-23T09:22:25.855Z,32.70
2019-01-23T09:23:25.841Z,33.00
2019-01-23T09:25:18.393Z,33.30
2019-01-23T09:26:18.230Z,33.20
2019-01-23T09:28:10.133Z,31.40
2019-01-23T09:29:10.131Z,33.10
2019-01-23T09:31:02.065Z,33.20
2019-01-23T09:32:02.035Z,32.50
2019-01-23T09:33:53.935Z,32.30
2019-01-23T09:34:53.946Z,31.90
2019-01-23T09:36:45.869Z,33.60
2019-01-23T09:37:45.853Z,31.50
2019-01-23T09:39:37.748Z,34.00
2019-01-23T09:40:37.747Z,31.60
2019-01-23T09:42:29.662Z,31.10
2019-01-23T09:43:29.661Z,30.50
2019-01-23T09:45:21.558Z,31.00
2019-01-23T09:46:21.546Z,32.10
2019-01-23T09:48:13.449Z,31.30
2019-01-23T09:49:13.478Z,31.70
2019-01-23T09:51:05.398Z,31.50
2019-01-23T09:52:06.018Z,32.30
2019-01-23T09:53:57.283Z,30.70
2019-01-23T09:54:57.285Z,30.40
2019-01-23T09:56:49.255Z,31.10
2019-01-23T09:57:49.189Z,31.70
2019-01-23T09:59:41.125Z,30.70
2019-01-23T10:00:41.127Z,30.60
2019-01-23T10:02:33.043Z,30.40
2019-01-23T10:03:33.025Z,31.30
2019-01-23T10:05:24.948Z,31.70
2019-01-23T10:06:25.016Z,31.80
2019-01-23T10:08:16.829Z,31.50
2019-01-23T10:09:16.830Z,31.20
2019-01-23T10:11:08.880Z,31.70
2019-01-23T10:12:08.777Z,31.20
2019-01-23T10:14:00.637Z,31.80
2019-01-23T10:15:00.741Z,32.20
2019-01-23T10:16:52.598Z,28.80
2019-01-23T10:17:52.571Z,29.20
2019-01-23T10:19:44.984Z,30.70
2019-01-23T10:20:45.040Z,30.30
2019-01-23T10:22:36.936Z,30.90
2019-01-23T10:23:37.476Z,28.40
2019-01-23T10:25:28.969Z,31.00
2019-01-23T10:26:28.872Z,29.50
2019-01-23T10:28:20.768Z,30.60
2019-01-23T10:29:20.803Z,30.70
2019-01-23T10:31:14.837Z,30.60
2019-01-23T10:32:15.673Z,29.60
2019-01-23T10:34:05.987Z,30.00
2019-01-23T10:35:06.009Z,31.20
2019-01-23T10:36:57.920Z,30.60
2019-01-23T10:37:57.901Z,31.00
2019-01-23T10:39:49.819Z,28.70
2019-01-23T10:40:49.855Z,30.40
2019-01-23T10:42:41.777Z,27.40
2019-01-23T10:43:41.756Z,27.70
2019-01-23T10:45:33.675Z,29.00
2019-01-23T10:46:33.662Z,29.30
2019-01-23T10:48:25.581Z,29.90
2019-01-23T10:49:25.583Z,30.10
2019-01-23T10:51:17.563Z,29.10
2019-01-23T10:52:17.509Z,31.90
2019-01-23T10:54:09.951Z,30.30
2019-01-23T10:55:09.393Z,30.90
2019-01-23T10:57:01.325Z,29.60
2019-01-23T10:58:01.301Z,30.20
2019-01-23T10:59:53.202Z,30.20
2019-01-23T11:00:53.204Z,29.70
2019-01-23T11:02:45.122Z,30.50
2019-01-23T11:03:45.106Z,29.40
2019-01-23T11:05:37.034Z,30.00
2019-01-23T11:06:37.027Z,30.50
2019-01-23T11:08:28.970Z,30.10
2019-01-23T11:09:28.994Z,29.80
2019-01-23T11:11:20.875Z,29.10
2019-01-23T11:12:20.860Z,29.60
2019-01-23T11:14:12.757Z,30.50
2019-01-23T11:15:12.768Z,28.80
2019-01-23T11:17:06.210Z,30.00
2019-01-23T11:18:06.192Z,29.40
2019-01-23T11:19:58.097Z,30.70
2019-01-23T11:20:58.101Z,30.30
2019-01-23T11:22:50.019Z,29.70
2019-01-23T11:23:50.006Z,29.40
2019-01-23T11:25:41.912Z,29.60
2019-01-23T11:26:41.914Z,30.00
2019-01-23T11:28:33.836Z,29.50
2019-01-23T11:29:33.822Z,29.80
2019-01-23T11:31:25.747Z,30.10
2019-01-23T11:32:25.726Z,29.20
2019-01-23T11:34:17.626Z,29.60
2019-01-23T11:35:17.629Z,29.00
2019-01-23T11:37:09.553Z,29.30
2019-01-23T11:38:09.534Z,29.50
2019-01-23T11:40:01.451Z,30.30
2019-01-23T11:41:01.446Z,30.10
2019-01-23T11:42:53.364Z,29.80
2019-01-23T11:43:53.350Z,30.00
2019-01-23T11:45:45.298Z,30.20
2019-01-23T11:46:45.284Z,29.40
2019-01-23T11:48:37.205Z,29.00
2019-01-23T11:49:37.188Z,30.20
2019-01-23T11:51:29.214Z,29.20
2019-01-23T11:52:29.097Z,29.40
2019-01-23T11:54:20.993Z,29.70
2019-01-23T11:55:21.000Z,29.50
2019-01-23T11:57:12.929Z,29.80
2019-01-23T11:58:12.902Z,28.60
2019-01-23T12:00:04.809Z,28.80
2019-01-23T12:01:04.807Z,28.10
2019-01-23T12:02:56.776Z,30.20
2019-01-23T12:03:56.718Z,29.50
2019-01-23T12:05:48.624Z,28.50
2019-01-23T12:06:48.627Z,29.80
2019-01-23T12:08:40.567Z,29.50
2019-01-23T12:09:40.554Z,29.00
2019-01-23T12:11:32.507Z,30.30
2019-01-23T12:12:32.532Z,30.30
2019-01-23T12:14:24.395Z,29.70
2019-01-23T12:15:24.372Z,29.50
2019-01-23T12:17:16.338Z,29.70
2019-01-23T12:18:16.306Z,28.80
2019-01-23T12:20:08.219Z,30.70
2019-01-23T12:21:08.211Z,28.90
2019-01-23T12:23:00.141Z,29.20
2019-01-23T12:24:00.124Z,29.80
2019-01-23T12:25:52.031Z,29.60
2019-01-23T12:26:52.043Z,28.10
2019-01-23T12:28:43.998Z,29.00
2019-01-23T12:29:44.005Z,29.60
2019-01-23T12:31:35.902Z,28.40
2019-01-23T12:32:35.895Z,28.90
2019-01-23T12:34:27.821Z,28.50
2019-01-23T12:35:27.811Z,28.50
2019-01-23T12:37:19.724Z,28.80
2019-01-23T12:38:19.710Z,28.90
2019-01-23T12:40:12.757Z,29.20
2019-01-23T12:41:11.661Z,29.80
2019-01-23T12:43:03.550Z,29.50
2019-01-23T12:44:03.544Z,29.30
2019-01-23T12:45:55.609Z,28.60
2019-01-23T12:46:55.465Z,28.10
2019-01-23T12:48:50.544Z,28.50
2019-01-23T12:49:50.385Z,29.30
2019-01-23T12:50:50.397Z,29.60
2019-01-23T12:51:50.407Z,29.30
2019-01-23T12:52:50.420Z,28.10
2019-01-23T12:53:50.517Z,29.20
2019-01-23T12:54:50.465Z,28.00
2019-01-23T12:55:50.453Z,29.40
2019-01-23T12:56:50.465Z,29.00
2019-01-23T12:57:50.473Z,29.60
2019-01-23T12:58:50.482Z,30.00
2019-01-23T12:59:50.490Z,29.70
2019-01-23T13:00:50.505Z,29.10
2019-01-23T13:01:50.519Z,29.50
2019-01-23T13:02:50.529Z,27.50
2019-01-23T13:03:50.550Z,28.50
2019-01-23T13:04:50.546Z,28.30
2019-01-23T13:05:50.563Z,28.00
2019-01-23T13:06:50.571Z,29.60
2019-01-23T13:07:50.583Z,28.70
2019-01-23T13:08:50.594Z,29.40
2019-01-23T13:09:50.656Z,26.90
2019-01-23T13:10:50.623Z,27.80
2019-01-23T13:11:50.624Z,28.40
2019-01-23T13:12:50.667Z,28.40
2019-01-23T13:13:50.646Z,28.90
2019-01-23T13:14:50.663Z,28.80
2019-01-23T13:15:50.774Z,29.10
2019-01-23T13:16:50.684Z,29.50
2019-01-23T13:17:50.778Z,28.10
2019-01-23T13:18:50.701Z,28.90
2019-01-23T13:19:50.712Z,28.10
2019-01-23T13:20:50.728Z,30.90
2019-01-23T13:21:50.734Z,29.00
2019-01-23T13:22:50.741Z,30.30
2019-01-23T13:23:50.757Z,28.40
2019-01-23T13:24:50.765Z,30.00
2019-01-23T13:25:50.777Z,28.60
2019-01-23T13:26:50.785Z,26.40
2019-01-23T13:27:50.829Z,27.10
2019-01-23T13:28:50.808Z,26.80
2019-01-23T13:29:50.819Z,27.60
2019-01-23T13:30:51.090Z,28.30
2019-01-23T13:31:50.841Z,27.80
2019-01-23T13:32:50.847Z,28.40
2019-01-23T13:33:50.862Z,27.40
2019-01-23T13:34:50.948Z,27.90
2019-01-23T13:35:50.885Z,29.10
2019-01-23T13:36:50.895Z,29.70
2019-01-23T13:37:50.903Z,29.50
2019-01-23T13:38:50.925Z,29.30
2019-01-23T13:39:50.924Z,29.60
2019-01-23T13:40:50.935Z,30.50
2019-01-23T13:41:51.006Z,30.50
2019-01-23T13:42:50.956Z,26.60
2019-01-23T13:43:50.967Z,27.80
2019-01-23T13:44:50.974Z,27.80
2019-01-23T13:45:50.990Z,27.60
2019-01-23T13:46:51.000Z,26.80
2019-01-23T13:47:51.013Z,28.10
2019-01-23T13:48:51.019Z,28.20
2019-01-23T13:49:51.042Z,27.00
2019-01-23T13:50:51.043Z,26.50
2019-01-23T13:51:51.051Z,26.70
2019-01-23T13:52:51.187Z,28.10
2019-01-23T13:53:51.077Z,28.20
2019-01-23T13:54:51.087Z,26.40
2019-01-23T13:55:51.156Z,30.50
2019-01-23T13:56:51.109Z,28.70
2019-01-23T13:57:51.118Z,26.40
2019-01-23T13:58:51.126Z,26.80
2019-01-23T13:59:51.137Z,27.30
2019-01-23T14:00:51.147Z,26.80
2019-01-23T14:01:56.079Z,27.00
2019-01-23T14:02:51.172Z,27.20
2019-01-23T14:03:51.177Z,27.40
2019-01-23T14:04:51.191Z,28.10
2019-01-23T14:05:51.199Z,28.00
2019-01-23T14:06:51.209Z,27.60
2019-01-23T14:07:51.220Z,27.80
2019-01-23T14:08:51.231Z,28.50
2019-01-23T14:09:51.240Z,27.70
2019-01-23T14:10:51.250Z,27.30
2019-01-23T14:11:51.285Z,28.00
2019-01-23T14:12:51.272Z,27.20
2019-01-23T14:13:51.285Z,27.00
2019-01-23T14:14:51.295Z,27.30
2019-01-23T14:15:51.302Z,27.70
2019-01-23T14:16:51.328Z,27.00
2019-01-23T14:17:51.325Z,28.90
2019-01-23T14:18:51.337Z,28.00
2019-01-23T14:19:51.384Z,27.50
2019-01-23T14:20:51.358Z,28.50
2019-01-23T14:21:51.364Z,28.50
2019-01-23T14:22:51.378Z,28.90
2019-01-23T14:23:51.392Z,28.50
2019-01-23T14:24:51.394Z,29.00
2019-01-23T14:25:51.410Z,28.00
2019-01-23T14:26:51.420Z,28.10
2019-01-23T14:27:51.429Z,28.00
2019-01-23T14:28:51.439Z,29.70
2019-01-23T14:29:51.446Z,28.40
2019-01-23T14:30:51.460Z,28.00
2019-01-23T14:31:51.469Z,28.10
2019-01-23T14:32:51.480Z,28.90
2019-01-23T14:33:51.538Z,28.20
2019-01-23T14:34:51.506Z,29.10
2019-01-23T14:35:51.514Z,28.30
2019-01-23T14:36:51.526Z,28.20
2019-01-23T14:37:51.533Z,29.00
2019-01-23T14:38:51.541Z,29.30
2019-01-23T14:39:51.549Z,30.20
2019-01-23T14:40:51.565Z,30.50
2019-01-23T14:41:51.670Z,29.00
2019-01-23T14:42:51.586Z,30.20
2019-01-23T14:43:51.602Z,29.40
2019-01-23T14:44:51.605Z,30.10
2019-01-23T14:45:51.617Z,30.00
2019-01-23T14:46:51.678Z,29.90
2019-01-23T14:47:51.638Z,31.40
2019-01-23T14:48:51.649Z,29.80
2019-01-23T14:49:51.661Z,29.40
2019-01-23T14:50:51.697Z,31.60
2019-01-23T14:51:51.679Z,30.80
2019-01-23T14:52:51.699Z,31.20
2019-01-23T14:53:51.701Z,30.90
2019-01-23T14:54:51.713Z,31.10
2019-01-23T14:55:51.739Z,31.30
2019-01-23T14:56:51.732Z,32.70
2019-01-23T14:57:51.743Z,32.70
2019-01-23T14:58:51.750Z,33.60
2019-01-23T14:59:51.762Z,33.10
2019-01-23T15:00:51.788Z,33.30
2019-01-23T15:01:51.785Z,32.70
2019-01-23T15:02:51.807Z,32.70
2019-01-23T15:03:51.810Z,34.90
2019-01-23T15:04:51.818Z,33.40
2019-01-23T15:05:51.827Z,34.00
2019-01-23T15:06:51.840Z,33.10
2019-01-23T15:07:51.850Z,32.60
2019-01-23T15:08:51.857Z,34.40
2019-01-23T15:09:51.887Z,35.30
2019-01-23T15:10:51.883Z,33.40
2019-01-23T15:11:51.889Z,33.40
2019-01-23T15:12:51.901Z,34.90
2019-01-23T15:13:51.912Z,34.70
2019-01-23T15:14:51.923Z,32.50
2019-01-23T15:15:51.945Z,33.50
2019-01-23T15:16:51.938Z,31.20
2019-01-23T15:17:51.949Z,31.70
2019-01-23T15:18:52.019Z,29.70
2019-01-23T15:19:51.970Z,30.90
2019-01-23T15:20:51.992Z,30.40
2019-01-23T15:21:52.011Z,30.10
2019-01-23T15:22:52.006Z,29.60
2019-01-23T15:23:52.011Z,30.30
2019-01-23T15:24:52.019Z,31.60
2019-01-23T15:25:52.183Z,30.70
2019-01-23T15:26:52.044Z,29.10
2019-01-23T15:27:52.055Z,31.00
2019-01-23T15:28:52.111Z,30.90
2019-01-23T15:29:52.074Z,31.60
2019-01-23T15:30:52.086Z,30.00
2019-01-23T15:31:52.097Z,30.50
2019-01-23T15:32:52.389Z,29.40
2019-01-23T15:33:52.112Z,29.30
2019-01-23T15:34:52.123Z,30.40
2019-01-23T15:35:52.221Z,29.60
2019-01-23T15:36:52.144Z,29.70
2019-01-23T15:37:52.148Z,28.30
2019-01-23T15:38:52.165Z,27.70
2019-01-23T15:39:52.172Z,27.60
2019-01-23T15:40:52.179Z,27.50
2019-01-23T15:41:52.191Z,28.20
2019-01-23T15:42:52.242Z,27.90
2019-01-23T15:43:52.211Z,27.70
2019-01-23T15:44:52.228Z,28.40
2019-01-23T15:45:52.234Z,27.40
2019-01-23T15:46:52.242Z,28.90
2019-01-23T15:47:52.249Z,27.20
2019-01-23T15:48:52.262Z,26.80
2019-01-23T15:49:52.270Z,27.30
2019-01-23T15:50:52.290Z,28.10
2019-01-23T15:51:52.291Z,29.40
2019-01-23T15:52:52.301Z,28.50
2019-01-23T15:53:52.313Z,27.90
2019-01-23T15:54:52.324Z,27.50
2019-01-23T15:55:52.329Z,26.40
2019-01-23T15:56:52.340Z,28.40
2019-01-23T15:57:52.355Z,28.30
2019-01-23T15:58:52.361Z,27.90
2019-01-23T15:59:52.367Z,28.70
2019-01-23T16:00:52.383Z,27.90
2019-01-23T16:01:52.394Z,26.00
2019-01-23T16:02:52.402Z,26.10
2019-01-23T16:03:52.409Z,27.30
2019-01-23T16:04:52.420Z,28.10
2019-01-23T16:05:52.468Z,26.40
2019-01-23T16:06:52.436Z,26.20
2019-01-23T16:07:52.449Z,27.10